Aeroporto :
LOGIN :

Iscrizione | Disclaimer

   EN    FR    IT 

 










Sommario :    VFR   VFR Marginale   IFR   IFR Intensivo   IFR Molto Intensivo
Visibilità : 
Base nubi : 
>= 8 km
>= 3000ft
5 / 8 km
1000 / 3000 ft
1500m / 5 km
500 / 1000 ft
800 / 1500m
200 / 500 ft
< 800m
< 200 ft
Simboli :   Temporali  Nebbia  Neve Forte  Precipitazioni Forti  Vento > 20 kt
SIGMETs :   Varie  Temporali  Ghiacco  Turbolenza  Onda orograficha  Ceneri Vulcaniche






- Altitudine del aeroporto : 1260 ft
- Codice IATA : LDE


LFBT - Tarbes / Ossun

ULTIMO METAR :
  • 241200Z AUTO VRB03KT CAVOK 19/03 Q1025 NOSIG

METARs OBSOLETI :
  • 241130Z AUTO VRB01KT CAVOK 19/05 Q1025 NOSIG
  • 241100Z AUTO VRB01KT CAVOK 16/06 Q1026 NOSIG
  • 241030Z AUTO VRB02KT CAVOK 14/05 Q1026 NOSIG
  • 241000Z AUTO VRB01KT CAVOK 12/06 Q1027 NOSIG
  • 240930Z AUTO 00000KT CAVOK 10/04 Q1027 NOSIG

TAF TAF LFBT
Valido dal 24 a 12 ore il 25 a 12 ore UTC


241100Z 2412/2512 VRB02KT CAVOK
BECMG 2421/2423 OVC004
PROB30 2500/2506 0500 FG VV///
BECMG 2506/2508 CAVOK
BECMG 2508/2510 27010KT BKN040
TEMPO 2510/2512 -RA OVC015



MetMap, La meteo Aeronautica in un colpo d'occhio ! - Copyright ORBIFLY Dicembre 2007 - Disclaimer

ORBIFLY MET'MAP TEAM :

Programmazione e sviluppo : Alexandra Zaïnal
Concezione : Baudouin d'Aumeries
Aiuto per la programmazione : Marc-Olivier Méhu
Supporto tecnico e logistico : Manuel Goepfert
Aiuto per la traduzione : Arnaldo La Scala

Contatto : metmap@orbifly.com




FONTI E CREDITI :

   NOAA